Time;durP1;ratioP1;P1;durP2;ratioP2;P2;SDS_P1;SDS_P2;PMS_P1;PMS_P2;Temp;Humidity;BMP_temperature;BMP_pressure;BME280_temperature;BME280_humidity;BME280_pressure;Samples;Min_cycle;Max_cycle;Signal;HPM_P1;HPM_P2
2023/04/14 00:00:39;;;;;;;0.00;0.00;;;;;;;5.01;96.86;99229.47;6212877;23;20004;-81
2023/04/14 00:03:05;;;;;;;0.00;0.00;;;;;;;5.06;96.65;99243.03;6164997;23;20058;-80
2023/04/14 00:05:34;;;;;;;0.00;0.00;;;;;;;4.92;96.35;99220.16;6212951;23;20434;-81
2023/04/14 00:08:00;;;;;;;0.03;0.03;;;;;;;4.97;97.06;99234.56;6191593;23;20035;-81
2023/04/14 00:10:26;;;;;;;0.00;0.00;;;;;;;4.85;97.23;99220.38;6216025;23;20427;-81
2023/04/14 00:12:52;;;;;;;0.05;0.05;;;;;;;4.91;97.76;99241.03;6215112;23;20131;-80
2023/04/14 00:15:20;;;;;;;0.00;0.00;;;;;;;4.92;97.40;99242.66;6189349;23;20004;-84
2023/04/14 00:17:45;;;;;;;0.00;0.00;;;;;;;4.90;98.80;99240.19;6212119;23;20090;-80
2023/04/14 00:20:11;;;;;;;0.00;0.00;;;;;;;4.85;98.67;99233.94;6163644;23;20043;-79
2023/04/14 00:22:37;;;;;;;0.00;0.00;;;;;;;4.87;97.63;99245.31;6209670;23;20065;-81
2023/04/14 00:25:02;;;;;;;0.00;0.00;;;;;;;4.72;96.74;99222.44;6216122;23;20091;-79
2023/04/14 00:27:29;;;;;;;0.00;0.00;;;;;;;4.70;97.49;99227.31;6192638;22;20427;-79
2023/04/14 00:29:57;;;;;;;0.00;0.00;;;;;;;4.68;97.80;99232.13;6268631;22;20008;-79
2023/04/14 00:32:30;;;;;;;0.00;0.00;;;;;;;4.65;98.80;99227.25;6246646;22;20086;-79
2023/04/14 00:34:56;;;;;;;0.00;0.00;;;;;;;4.66;98.29;99228.88;6240169;22;20030;-75
2023/04/14 00:37:22;;;;;;;0.00;0.00;;;;;;;4.75;99.47;99236.56;6221346;22;20008;-75
2023/04/14 00:39:50;;;;;;;0.00;0.00;;;;;;;4.63;99.03;99207.72;6241475;22;20007;-74
2023/04/14 00:42:15;;;;;;;0.00;0.00;;;;;;;4.67;99.75;99208.84;6242682;22;20430;-76
2023/04/14 00:44:40;;;;;;;0.00;0.00;;;;;;;4.76;99.16;99216.50;6196363;22;20007;-76
2023/04/14 00:47:06;;;;;;;0.00;0.00;;;;;;;4.71;99.40;99204.53;6267225;22;20000;-80
2023/04/14 00:49:31;;;;;;;0.00;0.00;;;;;;;4.79;99.45;99221.41;6194719;22;20012;-80
2023/04/14 00:51:57;;;;;;;0.00;0.00;;;;;;;4.88;99.22;99226.09;6217637;22;20003;-81
2023/04/14 00:54:24;;;;;;;0.00;0.00;;;;;;;4.74;99.84;99188.88;6246017;22;20007;-79
2023/04/14 00:56:50;;;;;;;0.00;0.00;;;;;;;4.86;99.36;99206.59;6241282;22;20004;-80
2023/04/14 00:59:21;;;;;;;0.00;0.00;;;;;;;4.85;99.71;99198.72;6270818;22;20011;-80
2023/04/14 01:01:48;;;;;;;0.00;0.00;;;;;;;4.88;99.57;99199.00;6246418;22;20011;-79
2023/04/14 01:04:14;;;;;;;0.00;0.00;;;;;;;4.87;99.65;99191.13;6241781;22;20083;-80
2023/04/14 01:06:40;;;;;;;0.00;0.00;;;;;;;4.85;100.00;99190.59;6269954;22;20414;-80
2023/04/14 01:09:05;;;;;;;0.00;0.00;;;;;;;4.65;100.00;99156.81;6217477;22;20030;-81
2023/04/14 01:12:06;;;;;;;0.00;0.00;;;;;;;4.95;100.00;99192.53;6195155;22;20004;-78
2023/04/14 01:14:43;;;;;;;0.00;0.00;;;;;;;4.79;100.00;99175.34;6244346;22;20033;-80
2023/04/14 01:17:22;;;;;;;0.00;0.00;;;;;;;4.68;100.00;99156.31;6240799;22;20031;-79
2023/04/14 01:20:21;;;;;;;0.00;0.00;;;;;;;4.92;99.73;99188.47;6240107;22;20069;-81
2023/04/14 01:23:00;;;;;;;0.00;0.00;;;;;;;4.73;100.00;99160.94;6224337;22;20011;-79
2023/04/14 01:25:45;;;;;;;0.10;0.10;;;;;;;4.84;99.49;99170.00;6235251;22;19995;-80
2023/04/14 01:28:26;;;;;;;0.00;0.00;;;;;;;4.77;99.73;99158.56;6243452;22;20049;-78
2023/04/14 01:31:34;;;;;;;0.00;0.00;;;;;;;4.92;98.89;99183.06;6246610;22;20016;-78
2023/04/14 01:34:27;;;;;;;0.00;0.00;;;;;;;4.92;99.17;99179.53;6283710;22;19996;-81
2023/04/14 01:36:57;;;;;;;0.00;0.00;;;;;;;4.84;98.28;99159.16;6244593;22;20000;-80
2023/04/14 01:39:29;;;;;;;0.10;0.10;;;;;;;4.99;97.28;99178.22;6255510;22;20011;-79
2023/04/14 01:41:58;;;;;;;0.00;0.00;;;;;;;4.94;98.37;99158.44;6243131;22;20075;-79
2023/04/14 01:44:29;;;;;;;0.00;0.00;;;;;;;5.13;98.37;99169.66;6244118;22;20007;-76
2023/04/14 01:47:05;;;;;;;0.00;0.00;;;;;;;5.14;99.41;99163.16;6241636;22;20326;-76
2023/04/14 01:49:37;;;;;;;0.00;0.00;;;;;;;5.16;99.39;99161.00;6243089;22;20006;-76
2023/04/14 01:52:05;;;;;;;0.00;0.00;;;;;;;5.22;99.02;99160.75;6242528;22;20004;-80
2023/04/14 01:54:33;;;;;;;0.00;0.00;;;;;;;5.06;99.71;99137.38;6245101;22;20481;-77
2023/04/14 01:57:01;;;;;;;0.00;0.00;;;;;;;5.22;99.13;99154.53;6243283;22;20361;-76
2023/04/14 01:59:29;;;;;;;0.00;0.00;;;;;;;5.30;100.00;99153.22;6244154;22;20015;-77
2023/04/14 02:01:56;;;;;;;0.00;0.00;;;;;;;5.39;100.00;99159.81;6242256;22;20071;-78
2023/04/14 02:04:24;;;;;;;0.10;0.10;;;;;;;5.38;100.00;99152.72;6246506;22;20007;-76
2023/04/14 02:06:51;;;;;;;0.00;0.00;;;;;;;5.40;100.00;99145.97;6270751;22;19999;-78
2023/04/14 02:09:19;;;;;;;0.00;0.00;;;;;;;5.42;100.00;99143.81;6190731;22;20012;-78
2023/04/14 02:11:50;;;;;;;0.00;0.00;;;;;;;5.44;100.00;99134.59;6242432;22;20003;-77
2023/04/14 02:14:17;;;;;;;0.00;0.00;;;;;;;5.68;97.76;99168.34;6244769;22;20594;-79
2023/04/14 02:16:44;;;;;;;0.00;0.00;;;;;;;5.72;97.77;99161.31;6217678;22;20034;-80
2023/04/14 02:19:10;;;;;;;0.00;0.00;;;;;;;5.55;96.71;99139.00;6215947;22;20012;-79
2023/04/14 02:21:38;;;;;;;0.00;0.00;;;;;;;5.44;97.66;99156.28;6217016;22;20516;-78
2023/04/14 02:24:03;;;;;;;0.00;0.00;;;;;;;5.34;98.63;99135.34;6241526;22;20011;-79
2023/04/14 02:26:31;;;;;;;0.00;0.00;;;;;;;5.37;100.00;99141.09;6244099;22;20611;-79
2023/04/14 02:29:03;;;;;;;0.00;0.00;;;;;;;5.39;100.00;99143.53;6215899;22;20106;-79
2023/04/14 02:31:34;;;;;;;0.00;0.00;;;;;;;5.41;100.00;99135.94;6270420;22;19999;-79
2023/04/14 02:34:12;;;;;;;0.00;0.00;;;;;;;5.51;100.00;99140.59;6218688;22;20011;-79
2023/04/14 02:36:51;;;;;;;0.00;0.00;;;;;;;5.40;100.00;99108.03;6247546;22;20010;-77
2023/04/14 02:39:22;;;;;;;0.00;0.00;;;;;;;5.43;100.00;99106.66;6266978;22;20119;-79
2023/04/14 02:42:04;;;;;;;0.00;0.00;;;;;;;5.47;100.00;99112.38;6272428;22;19999;-78
2023/04/14 02:44:36;;;;;;;0.00;0.00;;;;;;;5.56;100.00;99124.34;6240307;22;20090;-77
2023/04/14 02:47:08;;;;;;;0.00;0.00;;;;;;;5.45;100.00;99103.69;6245540;22;20295;-77
2023/04/14 02:49:37;;;;;;;0.00;0.00;;;;;;;5.53;100.00;99117.53;6266500;22;20004;-77
2023/04/14 02:52:10;;;;;;;0.00;0.00;;;;;;;5.48;100.00;99109.41;6244530;22;20006;-78
2023/04/14 02:54:40;;;;;;;0.00;0.00;;;;;;;5.35;100.00;99094.44;6239817;22;20618;-78
2023/04/14 02:57:06;;;;;;;0.00;0.00;;;;;;;5.39;100.00;99100.16;6243490;22;20049;-77
2023/04/14 02:59:33;;;;;;;0.00;0.00;;;;;;;5.28;100.00;99101.97;6221610;22;20008;-77
2023/04/14 03:02:01;;;;;;;0.00;0.00;;;;;;;5.24;100.00;99071.06;6248081;22;20003;-77
2023/04/14 03:04:36;;;;;;;0.00;0.00;;;;;;;5.33;100.00;99077.63;6192016;22;20074;-77
2023/04/14 03:07:04;;;;;;;0.00;0.00;;;;;;;5.39;100.00;99071.13;6274785;22;19992;-76
2023/04/14 03:09:31;;;;;;;0.00;0.00;;;;;;;5.43;100.00;99082.25;6241985;22;20007;-77
2023/04/14 03:11:58;;;;;;;0.10;0.10;;;;;;;5.38;100.00;99069.50;6266198;22;20007;-78
2023/04/14 03:14:24;;;;;;;0.00;0.00;;;;;;;5.51;100.00;99080.94;6245729;22;20015;-76
2023/04/14 03:16:53;;;;;;;0.10;0.10;;;;;;;5.54;100.00;99075.00;6244489;22;20531;-78
2023/04/14 03:19:51;;;;;;;0.00;0.00;;;;;;;5.54;100.00;99064.16;6228068;22;20042;-76
2023/04/14 03:22:09;;;;;;;0.00;0.00;;;;;;;5.48;100.00;99059.78;6266206;22;20024;-77
2023/04/14 03:24:37;;;;;;;0.10;0.10;;;;;;;5.52;100.00;99047.31;6308920;22;20038;-74
2023/04/14 03:27:21;;;;;;;0.00;0.00;;;;;;;5.66;100.00;99053.88;6301909;22;20130;-74
2023/04/14 03:29:50;;;;;;;0.00;0.00;;;;;;;5.60;100.00;99035.94;6333568;22;20024;-76
2023/04/14 03:32:18;;;;;;;0.00;0.00;;;;;;;5.71;100.00;99037.63;6311494;22;20006;-76
2023/04/14 03:34:47;;;;;;;0.00;0.00;;;;;;;5.79;100.00;99047.13;6333925;22;20320;-78
2023/04/14 03:37:15;;;;;;;0.00;0.00;;;;;;;5.78;100.00;99037.34;6328214;22;20056;-77
2023/04/14 03:39:42;;;;;;;0.00;0.00;;;;;;;5.75;100.00;99021.59;6282791;22;20032;-78
2023/04/14 03:42:11;;;;;;;0.00;0.00;;;;;;;5.79;100.00;99032.75;6246091;23;20011;-77
2023/04/14 03:44:39;;;;;;;0.10;0.10;;;;;;;5.84;100.00;99030.03;6184707;23;20345;-81
2023/04/14 03:47:09;;;;;;;0.00;0.00;;;;;;;5.76;100.00;99021.34;6239259;23;20008;-79
2023/04/14 03:49:37;;;;;;;0.00;0.00;;;;;;;5.86;100.00;99011.59;6212622;23;20453;-80
2023/04/14 03:52:05;;;;;;;0.10;0.10;;;;;;;5.92;100.00;99026.81;6214754;23;20004;-78
2023/04/14 03:54:32;;;;;;;0.00;0.00;;;;;;;5.82;100.00;98999.66;6236663;23;20008;-79
2023/04/14 03:56:59;;;;;;;0.00;0.00;;;;;;;5.84;100.00;98997.47;6212354;23;20502;-79
2023/04/14 03:59:27;;;;;;;0.00;0.00;;;;;;;5.81;100.00;99001.56;6239247;23;20015;-79
2023/04/14 04:01:56;;;;;;;0.00;0.00;;;;;;;5.87;100.00;98996.94;6242423;23;20000;-78
2023/04/14 04:04:25;;;;;;;0.00;0.00;;;;;;;5.87;100.00;99007.78;6235856;23;20023;-77
2023/04/14 04:06:52;;;;;;;0.00;0.00;;;;;;;5.73;100.00;98992.03;6242136;23;20091;-79
2023/04/14 04:09:22;;;;;;;0.00;0.00;;;;;;;5.83;100.00;99004.00;6216636;22;20011;-79
2023/04/14 04:11:48;;;;;;;0.00;0.00;;;;;;;5.75;100.00;98987.19;6244794;22;20445;-76
2023/04/14 04:14:16;;;;;;;0.00;0.00;;;;;;;5.79;100.00;98992.06;6221120;22;20008;-74
2023/04/14 04:16:42;;;;;;;0.00;0.00;;;;;;;5.73;100.00;98978.47;6268013;22;20000;-74
2023/04/14 04:19:15;;;;;;;0.00;0.00;;;;;;;5.76;100.00;98980.66;6245751;22;20011;-75
2023/04/14 04:21:43;;;;;;;0.00;0.00;;;;;;;5.88;100.00;98993.16;6241746;22;20007;-75
2023/04/14 04:24:11;;;;;;;0.00;0.00;;;;;;;5.81;100.00;98981.75;6220302;22;20046;-75
2023/04/14 04:26:36;;;;;;;0.00;0.00;;;;;;;5.83;100.00;98976.88;6220863;22;20053;-76
2023/04/14 04:29:03;;;;;;;0.00;0.00;;;;;;;5.90;100.00;98980.13;6215362;22;20008;-74
2023/04/14 04:31:31;;;;;;;0.00;0.00;;;;;;;5.93;100.00;98980.41;6245597;22;20003;-75
2023/04/14 04:33:57;;;;;;;0.00;0.00;;;;;;;5.88;100.00;98968.72;6242532;22;19996;-79
2023/04/14 04:36:27;;;;;;;0.00;0.00;;;;;;;5.97;100.00;98977.97;6218369;22;20079;-78
2023/04/14 04:38:52;;;;;;;0.00;0.00;;;;;;;5.93;100.00;98963.31;6246289;22;20019;-78
2023/04/14 04:41:25;;;;;;;0.00;0.00;;;;;;;5.95;100.00;98967.38;6249945;22;20033;-79
2023/04/14 04:43:51;;;;;;;0.00;0.00;;;;;;;5.97;100.00;98974.44;6247040;22;20023;-79
2023/04/14 04:46:47;;;;;;;0.00;0.00;;;;;;;6.07;100.00;98985.31;6249814;22;20030;-79
2023/04/14 04:49:13;;;;;;;0.00;0.00;;;;;;;6.03;100.00;98967.94;6271385;22;20007;-79
2023/04/14 04:51:42;;;;;;;0.00;0.00;;;;;;;6.03;100.00;98965.22;6275566;22;20026;-78
2023/04/14 04:54:07;;;;;;;0.00;0.00;;;;;;;6.06;100.00;98968.22;6299547;22;19991;-78
2023/04/14 04:56:33;;;;;;;0.00;0.00;;;;;;;5.93;100.00;98944.31;6274488;22;19999;-79
2023/04/14 04:59:02;;;;;;;0.00;0.00;;;;;;;6.11;100.00;98975.56;6250624;22;20003;-78
2023/04/14 05:01:27;;;;;;;0.00;0.00;;;;;;;6.06;100.00;98965.50;6273922;22;20010;-78
2023/04/14 05:03:53;;;;;;;0.00;0.00;;;;;;;6.16;100.00;98967.38;6248680;22;20346;-79
2023/04/14 05:06:19;;;;;;;0.00;0.00;;;;;;;6.07;100.00;98947.31;6246763;22;20010;-78
2023/04/14 05:08:49;;;;;;;0.00;0.00;;;;;;;6.08;100.00;98944.34;6274847;22;20003;-79
2023/04/14 05:11:15;;;;;;;0.00;0.00;;;;;;;6.23;100.00;98958.97;6272820;22;20014;-79
2023/04/14 05:13:40;;;;;;;0.00;0.00;;;;;;;6.17;100.00;98930.22;6245600;22;20390;-75
2023/04/14 05:16:12;;;;;;;0.00;0.00;;;;;;;6.21;100.00;98937.53;6274868;22;20009;-75
2023/04/14 05:18:41;;;;;;;0.00;0.00;;;;;;;6.14;100.00;98919.91;6270053;22;20010;-77
2023/04/14 05:21:14;;;;;;;0.00;0.00;;;;;;;6.22;100.00;98927.47;6275842;22;19999;-77
2023/04/14 05:23:42;;;;;;;0.00;0.00;;;;;;;6.17;100.00;98927.50;6249134;22;20381;-77
2023/04/14 05:26:11;;;;;;;0.00;0.00;;;;;;;6.25;100.00;98927.75;6275293;22;19999;-78
2023/04/14 05:28:37;;;;;;;0.00;0.00;;;;;;;6.25;100.00;98922.34;6272737;22;20057;-80
2023/04/14 05:31:02;;;;;;;0.00;0.00;;;;;;;6.38;100.00;98931.81;6275703;22;20003;-79
2023/04/14 05:33:28;;;;;;;0.00;0.00;;;;;;;6.46;100.00;98933.97;6249491;22;20007;-79
2023/04/14 05:35:53;;;;;;;0.00;0.00;;;;;;;6.53;100.00;98938.31;6272427;22;20004;-77
2023/04/14 05:38:19;;;;;;;0.00;0.00;;;;;;;6.50;100.00;98927.97;6274518;22;20034;-78
2023/04/14 05:40:46;;;;;;;0.00;0.00;;;;;;;6.53;100.00;98916.59;6249733;22;20053;-78
2023/04/14 05:43:11;;;;;;;0.00;0.00;;;;;;;6.69;100.00;98937.16;6303517;22;20000;-78
2023/04/14 05:45:39;;;;;;;0.00;0.00;;;;;;;6.60;100.00;98934.22;6273517;22;19999;-80
2023/04/14 05:48:07;;;;;;;0.00;0.00;;;;;;;6.40;100.00;98915.25;6277366;22;20023;-79
2023/04/14 05:50:34;;;;;;;0.00;0.00;;;;;;;6.38;100.00;98912.81;6270582;22;20007;-80
2023/04/14 05:53:10;;;;;;;0.00;0.00;;;;;;;6.46;100.00;98930.44;6301740;22;20003;-79
2023/04/14 05:56:14;;;;;;;;;;;;;;;;;;;;;
2023/04/14 05:59:41;;;;;;;0.00;0.00;;;;;;;6.49;100.00;98931.78;6266581;22;20034;-81
2023/04/14 06:03:15;;;;;;;;;;;;;;;;;;;;;
2023/04/14 06:06:35;;;;;;;0.00;0.00;;;;;;;6.34;100.00;98868.28;5984971;23;20410;-82
2023/04/14 07:27:38;;;;;;;;;;;;;;;;;;;;;
2023/04/14 07:30:07;;;;;;;0.00;0.00;;;;;;;5.39;100.00;98884.06;6306601;22;20086;-85
2023/04/14 07:32:35;;;;;;;0.00;0.00;;;;;;;5.44;100.00;98868.91;6280260;22;20613;-86
2023/04/14 07:35:18;;;;;;;0.00;0.00;;;;;;;5.32;100.00;98834.72;6256501;22;20061;-82
2023/04/14 07:37:44;;;;;;;0.00;0.00;;;;;;;5.60;100.00;98878.66;6285060;22;20007;-86
2023/04/14 07:40:12;;;;;;;0.10;0.10;;;;;;;5.47;100.00;98857.50;6287971;22;20081;-83
2023/04/14 07:46:07;;;;;;;0.00;0.00;;;;;;;5.42;100.00;98840.16;6210045;23;20066;-84
2023/04/14 07:48:44;;;;;;;0.00;0.00;;;;;;;5.42;100.00;98837.44;6277173;22;20007;-81
2023/04/14 07:51:19;;;;;;;0.00;0.00;;;;;;;5.61;100.00;98864.03;6277677;22;20014;-83
2023/04/14 07:53:54;;;;;;;0.00;0.00;;;;;;;5.77;100.00;98878.41;6280362;22;20007;-81
2023/04/14 07:56:23;;;;;;;0.00;0.00;;;;;;;5.71;100.00;98858.59;6275573;22;20003;-82
2023/04/14 07:59:05;;;;;;;0.00;0.00;;;;;;;5.67;100.00;98852.09;6280573;22;20014;-80
2023/04/14 08:01:30;;;;;;;0.00;0.00;;;;;;;5.89;100.00;98869.97;6278908;22;19995;-82
2023/04/14 08:03:59;;;;;;;0.00;0.00;;;;;;;5.70;100.00;98837.97;6257875;22;20052;-83
2023/04/14 08:06:25;;;;;;;0.00;0.00;;;;;;;5.85;100.00;98848.00;6282161;22;20003;-83
2023/04/14 08:08:51;;;;;;;0.00;0.00;;;;;;;5.84;100.00;98829.28;6284680;22;20019;-82
2023/04/14 08:11:16;;;;;;;0.00;0.00;;;;;;;6.10;100.00;98871.63;6285033;22;20010;-82
2023/04/14 08:13:42;;;;;;;0.00;0.00;;;;;;;6.05;100.00;98851.81;6251878;22;20094;-81
2023/04/14 08:16:08;;;;;;;0.00;0.00;;;;;;;6.10;100.00;98868.06;6251526;22;20014;-80
2023/04/14 08:18:33;;;;;;;0.00;0.00;;;;;;;6.00;100.00;98855.34;6251871;22;20015;-81
2023/04/14 08:21:01;;;;;;;0.00;0.00;;;;;;;5.90;100.00;98855.34;6253333;22;20019;-78
2023/04/14 08:23:26;;;;;;;0.00;0.00;;;;;;;5.81;100.00;98844.22;6273380;22;20068;-77
2023/04/14 08:25:52;;;;;;;0.00;0.00;;;;;;;5.91;100.00;98867.78;6281518;22;20003;-77
2023/04/14 08:28:20;;;;;;;0.00;0.00;;;;;;;5.84;100.00;98859.13;6276125;22;20027;-78
2023/04/14 08:30:46;;;;;;;0.00;0.00;;;;;;;5.92;100.00;98864.81;6299442;22;20010;-78
2023/04/14 08:33:12;;;;;;;0.00;0.00;;;;;;;6.05;100.00;98863.47;6225597;22;20008;-78
2023/04/14 08:35:37;;;;;;;0.00;0.00;;;;;;;6.18;100.00;98872.94;6246715;22;20069;-77
2023/04/14 08:38:05;;;;;;;0.00;0.00;;;;;;;6.30;100.00;98883.50;6274035;22;20368;-76
2023/04/14 08:40:43;;;;;;;0.00;0.00;;;;;;;6.32;100.00;98867.75;6272516;22;20084;-77
2023/04/14 08:43:09;;;;;;;0.00;0.00;;;;;;;6.36;100.00;98876.97;6251201;22;20007;-78
2023/04/14 08:45:35;;;;;;;0.00;0.00;;;;;;;6.60;100.00;98893.47;6271799;22;19999;-78
2023/04/14 08:48:47;;;;;;;0.00;0.00;;;;;;;6.76;100.00;98896.94;6276535;22;20334;-77
2023/04/14 08:55:14;;;;;;;0.00;0.00;;;;;;;7.22;100.00;98884.19;6159438;23;20067;-77
2023/04/14 08:58:17;;;;;;;;;;;;;;;;;;;;;
2023/04/14 09:05:17;;;;;;;;;;;;;;;;;;;;;
2023/04/14 09:08:05;;;;;;;0.00;0.00;;;;;;;8.13;95.60;98897.34;6267890;22;20488;-78
2023/04/14 09:11:23;;;;;;;;;;;;;;;;;;;;;
2023/04/14 09:21:22;;;;;;;0.00;0.00;;;;;;;8.28;93.67;98882.75;6108432;23;20436;-75
2023/04/14 09:23:50;;;;;;;0.00;0.00;;;;;;;8.46;92.75;98868.44;6144652;22;20291;-76
2023/04/14 09:26:21;;;;;;;0.00;0.00;;;;;;;8.82;92.38;98881.66;6276499;22;19999;-77
2023/04/14 09:28:59;;;;;;;;;;;;;;;;;;;;;
2023/04/14 09:38:12;;;;;;;0.00;0.00;;;;;;;9.93;89.15;98859.53;6040282;23;20006;-79
2023/04/14 09:41:14;;;;;;;0.00;0.00;;;;;;;10.10;86.28;98891.72;6202518;23;20059;-73
2023/04/14 09:58:27;;;;;;;0.00;0.00;;;;;;;11.81;81.30;98887.06;6194418;23;20020;-75
2023/04/14 10:01:40;;;;;;;;;;;;;;;;;;;;;
2023/04/14 10:04:31;;;;;;;;;;;;;;;;;;;;;
2023/04/14 10:07:27;;;;;;;;;;;;;;;;;;;;;
2023/04/14 10:11:08;;;;;;;0.00;0.00;;;;;;;13.87;78.84;98865.56;6298406;22;20596;-77
2023/04/14 10:21:39;;;;;;;0.00;0.00;;;;;;;14.37;70.26;98839.38;6114410;23;20006;-78
2023/04/14 10:27:34;;;;;;;0.00;0.00;;;;;;;12.96;72.59;98872.78;6059100;23;20046;-76
2023/04/14 10:30:04;;;;;;;0.00;0.00;;;;;;;12.64;74.06;98870.09;6073117;23;20021;-77
2023/04/14 10:32:34;;;;;;;0.00;0.00;;;;;;;12.09;73.18;98859.53;6231551;22;20430;-76
2023/04/14 10:35:04;;;;;;;0.00;0.00;;;;;;;11.66;74.21;98878.09;6297340;22;20003;-77
2023/04/14 10:37:32;;;;;;;0.00;0.00;;;;;;;11.60;78.04;98884.81;6275680;22;20526;-79
2023/04/14 10:39:59;;;;;;;0.00;0.00;;;;;;;13.08;79.18;98861.97;6271096;22;20086;-76
2023/04/14 10:42:31;;;;;;;0.00;0.00;;;;;;;14.63;75.42;98858.53;6301030;22;19995;-78
2023/04/14 10:45:04;;;;;;;0.00;0.00;;;;;;;15.21;70.78;98887.50;6276837;22;20072;-76
2023/04/14 10:47:30;;;;;;;0.00;0.00;;;;;;;14.92;71.82;98872.63;6275287;22;20011;-75
2023/04/14 10:50:10;;;;;;;0.00;0.00;;;;;;;13.99;68.37;98894.28;6249423;22;20015;-77
2023/04/14 10:52:54;;;;;;;0.00;0.00;;;;;;;12.72;69.39;98885.78;6273954;22;19999;-76
2023/04/14 10:55:43;;;;;;;;;;;;;;;13.70;77.47;98882.88;6298748;22;20010;-76
2023/04/14 10:58:08;;;;;;;0.00;0.00;;;;;;;15.53;73.72;98878.50;6274070;22;19990;-75
2023/04/14 11:00:37;;;;;;;0.00;0.00;;;;;;;16.74;73.96;98879.53;6296664;22;20034;-77
2023/04/14 11:03:09;;;;;;;0.00;0.00;;;;;;;16.98;61.50;98888.97;6302606;22;20086;-77
2023/04/14 11:05:43;;;;;;;0.00;0.00;;;;;;;15.58;63.64;98887.69;6245885;22;19999;-75
2023/04/14 11:08:57;;;;;;;0.00;0.00;;;;;;;14.23;63.59;98899.25;6250532;22;20014;-75
2023/04/14 11:11:34;;;;;;;0.00;0.00;;;;;;;13.02;66.37;98883.25;6277008;22;20422;-75
2023/04/14 11:14:12;;;;;;;0.00;0.00;;;;;;;13.78;69.68;98879.31;6273721;22;20089;-77
2023/04/14 11:16:38;;;;;;;0.00;0.00;;;;;;;14.13;66.22;98895.75;6270040;22;20013;-75
2023/04/14 11:19:20;;;;;;;0.00;0.00;;;;;;;13.83;65.51;98885.75;6249016;22;20410;-75
2023/04/14 11:21:49;;;;;;;0.00;0.00;;;;;;;13.51;64.83;98901.63;6270424;22;20069;-77
2023/04/14 11:24:23;;;;;;;0.00;0.00;;;;;;;13.05;64.89;98896.38;6301359;22;20089;-78
2023/04/14 11:26:55;;;;;;;0.00;0.00;;;;;;;12.48;66.22;98880.69;6269105;22;20003;-76
2023/04/14 11:29:21;;;;;;;0.00;0.00;;;;;;;12.13;67.29;98866.03;6300442;22;20342;-77
2023/04/14 11:32:07;;;;;;;0.00;0.00;;;;;;;12.22;67.49;98892.34;6274328;22;20046;-75
2023/04/14 11:34:35;;;;;;;0.00;0.00;;;;;;;12.61;69.09;98881.72;6266296;22;20457;-76
2023/04/14 11:37:06;;;;;;;0.00;0.00;;;;;;;13.12;69.95;98841.00;6270160;22;20007;-79
2023/04/14 11:39:34;;;;;;;0.00;0.00;;;;;;;13.31;67.19;98853.59;6295972;22;20059;-76
2023/04/14 11:42:01;;;;;;;0.00;0.00;;;;;;;13.46;66.50;98877.84;6224592;22;20019;-76
2023/04/14 11:44:26;;;;;;;0.00;0.00;;;;;;;13.37;66.03;98864.13;6249277;22;20452;-75
2023/04/14 11:46:55;;;;;;;0.00;0.00;;;;;;;13.04;65.19;98850.84;6270143;22;20077;-79
2023/04/14 11:49:34;;;;;;;0.00;0.00;;;;;;;12.97;67.15;98863.44;6275368;22;20003;-75
2023/04/14 11:52:06;;;;;;;0.00;0.00;;;;;;;12.87;66.64;98845.31;6270352;22;20023;-76
2023/04/14 11:54:38;;;;;;;0.00;0.00;;;;;;;12.08;65.82;98852.47;6275011;22;20410;-77
2023/04/14 11:57:13;;;;;;;0.00;0.00;;;;;;;11.31;69.18;98847.72;6244131;22;20004;-76
2023/04/14 11:59:46;;;;;;;0.00;0.00;;;;;;;11.10;71.31;98857.53;6274706;22;20078;-79
2023/04/14 12:02:24;;;;;;;0.00;0.00;;;;;;;11.53;74.32;98844.22;6270846;22;20106;-77
2023/04/14 12:04:58;;;;;;;0.00;0.00;;;;;;;12.99;72.66;98848.25;6272819;22;20052;-76
2023/04/14 12:07:24;;;;;;;0.00;0.00;;;;;;;13.39;71.13;98831.69;6297721;22;20074;-76
2023/04/14 12:09:49;;;;;;;0.00;0.00;;;;;;;13.70;69.81;98854.59;6248448;22;20035;-76
2023/04/14 12:12:17;;;;;;;0.00;0.00;;;;;;;13.99;71.96;98831.09;6272707;22;20715;-78
2023/04/14 12:14:44;;;;;;;0.00;0.00;;;;;;;14.21;68.87;98841.06;6301664;22;20037;-78
2023/04/14 12:17:11;;;;;;;0.00;0.00;;;;;;;15.10;73.08;98838.34;6270255;22;20388;-77
2023/04/14 12:19:37;;;;;;;0.00;0.00;;;;;;;16.44;70.25;98840.31;6306187;22;20003;-80
2023/04/14 12:22:03;;;;;;;0.00;0.00;;;;;;;16.62;63.70;98843.63;6299021;22;20031;-78
2023/04/14 12:24:41;;;;;;;0.00;0.00;;;;;;;15.69;62.23;98844.81;6277241;22;20248;-76
2023/04/14 12:27:09;;;;;;;0.00;0.00;;;;;;;14.65;63.71;98836.19;6271299;22;20011;-77
2023/04/14 12:29:38;;;;;;;0.00;0.00;;;;;;;14.09;64.79;98856.28;6305666;22;20014;-76
2023/04/14 12:32:11;;;;;;;0.00;0.00;;;;;;;13.32;63.59;98845.06;6272863;22;20019;-77
2023/04/14 12:34:41;;;;;;;0.00;0.00;;;;;;;12.81;66.44;98830.16;6302799;22;20330;-79
2023/04/14 12:37:09;;;;;;;0.00;0.00;;;;;;;13.06;66.02;98848.56;6272077;22;20075;-77
2023/04/14 12:39:56;;;;;;;0.00;0.00;;;;;;;12.61;65.83;98859.78;6250305;22;20011;-77
2023/04/14 12:42:24;;;;;;;0.00;0.00;;;;;;;12.16;67.11;98858.00;6299874;22;20720;-76
2023/04/14 12:45:01;;;;;;;0.00;0.00;;;;;;;12.47;67.53;98881.84;6274317;22;20003;-76
2023/04/14 12:47:33;;;;;;;0.00;0.00;;;;;;;12.51;67.16;98838.13;6273057;22;20007;-75
2023/04/14 12:50:29;;;;;;;0.00;0.00;;;;;;;12.85;66.24;98896.94;6245689;22;20014;-81
2023/04/14 12:52:58;;;;;;;0.00;0.00;;;;;;;12.21;65.40;98893.47;6274089;22;20030;-76
2023/04/14 12:55:29;;;;;;;0.00;0.00;;;;;;;11.57;68.19;98888.19;6275188;22;20460;-76
2023/04/14 12:58:01;;;;;;;0.00;0.00;;;;;;;10.98;70.10;98888.94;6246263;22;20020;-78
2023/04/14 13:00:30;;;;;;;0.00;0.00;;;;;;;11.12;72.22;98915.47;6276282;22;20003;-79
2023/04/14 13:02:56;;;;;;;0.00;0.00;;;;;;;11.58;72.46;98925.41;6245618;22;20003;-79
2023/04/14 13:05:24;;;;;;;0.00;0.00;;;;;;;12.45;73.96;98916.16;6275551;22;20126;-79
2023/04/14 13:07:49;;;;;;;0.00;0.00;;;;;;;13.19;71.11;98918.19;6243739;22;20018;-77
2023/04/14 13:10:15;;;;;;;0.00;0.00;;;;;;;13.16;68.56;98918.03;6273219;22;20093;-77
2023/04/14 13:12:40;;;;;;;0.00;0.00;;;;;;;12.78;69.18;98924.06;6275403;22;20042;-79
2023/04/14 13:15:06;;;;;;;0.00;0.00;;;;;;;12.54;69.27;98903.28;6248265;22;20007;-81
2023/04/14 13:17:32;;;;;;;0.00;0.00;;;;;;;12.89;68.89;98908.91;6253244;22;20011;-80
2023/04/14 13:19:57;;;;;;;0.00;0.00;;;;;;;13.05;68.58;98907.34;6250531;22;20086;-81
2023/04/14 13:22:23;;;;;;;0.00;0.00;;;;;;;13.23;68.73;98941.13;6278376;22;20328;-83
2023/04/14 13:24:49;;;;;;;0.00;0.00;;;;;;;12.88;67.77;98912.78;6279772;22;20000;-83
2023/04/14 13:27:18;;;;;;;0.00;0.00;;;;;;;12.30;68.32;98911.91;6248860;22;20022;-82
2023/04/14 13:29:44;;;;;;;0.00;0.00;;;;;;;11.65;69.81;98909.34;6251442;22;20018;-82
2023/04/14 13:32:11;;;;;;;0.00;0.00;;;;;;;11.41;71.82;98922.50;6272919;22;20437;-82
2023/04/14 13:34:45;;;;;;;0.00;0.00;;;;;;;11.03;72.62;98922.78;6252544;22;20090;-82
2023/04/14 13:37:47;;;;;;;0.00;0.00;;;;;;;10.84;73.28;98918.25;6250840;22;20334;-81
2023/04/14 13:40:15;;;;;;;0.00;0.00;;;;;;;10.67;72.96;98924.31;6253548;22;20034;-82
2023/04/14 13:43:02;;;;;;;0.00;0.00;;;;;;;10.24;72.75;98887.09;6278302;22;20011;-81
2023/04/14 13:45:28;;;;;;;0.00;0.00;;;;;;;10.52;75.00;98947.28;6276356;22;20003;-80
2023/04/14 13:47:56;;;;;;;0.00;0.00;;;;;;;10.34;73.40;98924.38;6279669;22;20310;-80
2023/04/14 13:50:24;;;;;;;0.00;0.00;;;;;;;10.48;74.54;98973.59;6279253;22;20086;-83
2023/04/14 13:52:50;;;;;;;0.00;0.00;;;;;;;10.36;75.52;98967.81;6277726;22;20089;-80
2023/04/14 13:55:18;;;;;;;0.00;0.00;;;;;;;10.37;75.63;98983.09;6251521;22;20091;-80
2023/04/14 13:57:45;;;;;;;0.00;0.00;;;;;;;10.03;74.24;98951.38;6278726;22;20360;-80
2023/04/14 14:00:11;;;;;;;0.00;0.00;;;;;;;9.95;74.49;98961.88;6278268;22;20479;-80
2023/04/14 14:02:39;;;;;;;0.00;0.00;;;;;;;9.89;76.99;98973.97;6275802;22;20003;-83
2023/04/14 14:05:09;;;;;;;0.00;0.00;;;;;;;9.93;77.14;98975.00;6279090;22;20311;-79
2023/04/14 14:07:36;;;;;;;0.00;0.00;;;;;;;9.96;78.45;98979.88;6278692;22;20006;-79
2023/04/14 14:10:04;;;;;;;0.00;0.00;;;;;;;10.01;78.23;98976.25;6254492;22;20042;-79
2023/04/14 14:12:31;;;;;;;0.00;0.00;;;;;;;10.15;76.83;98987.25;6276406;22;20465;-79
2023/04/14 14:14:58;;;;;;;0.00;0.00;;;;;;;10.33;76.63;99004.69;6251917;22;20011;-80
2023/04/14 14:17:24;;;;;;;0.00;0.00;;;;;;;10.28;76.72;98997.41;6276507;22;20005;-78
2023/04/14 14:19:52;;;;;;;0.00;0.00;;;;;;;10.05;77.00;98987.41;6250360;22;20098;-79
2023/04/14 14:22:18;;;;;;;0.00;0.00;;;;;;;9.75;77.47;98978.56;6251576;22;20010;-81